createdAt,value
2019-06-26T00:02:03.151Z,26.60
2019-06-26T00:04:35.872Z,26.50
2019-06-26T00:07:07.955Z,26.50
2019-06-26T00:09:39.858Z,26.40
2019-06-26T00:12:12.674Z,26.30
2019-06-26T00:14:46.228Z,26.30
2019-06-26T00:17:19.012Z,26.30
2019-06-26T00:19:52.186Z,26.20
2019-06-26T00:22:25.002Z,26.30
2019-06-26T00:24:57.779Z,26.30
2019-06-26T00:27:31.349Z,26.20
2019-06-26T00:30:03.318Z,26.20
2019-06-26T00:32:34.693Z,26.10
2019-06-26T00:35:07.698Z,26.10
2019-06-26T00:37:39.572Z,26.10
2019-06-26T00:40:12.855Z,26.00
2019-06-26T00:42:44.691Z,26.00
2019-06-26T00:45:18.262Z,25.80
2019-06-26T00:47:51.073Z,25.80
2019-06-26T00:50:23.988Z,25.70
2019-06-26T00:52:55.069Z,25.70
2019-06-26T00:58:00.209Z,25.70
2019-06-26T01:00:36.823Z,25.70
2019-06-26T01:03:09.612Z,25.60
2019-06-26T01:05:43.342Z,25.50
2019-06-26T01:10:48.579Z,25.50
2019-06-26T01:13:21.344Z,25.50
2019-06-26T01:15:55.519Z,25.40
2019-06-26T01:18:28.442Z,25.30
2019-06-26T01:21:01.656Z,25.30
2019-06-26T01:26:07.269Z,25.30
2019-06-26T01:28:40.938Z,25.20
2019-06-26T01:33:47.913Z,25.20
2019-06-26T01:36:22.380Z,25.20
2019-06-26T01:38:53.729Z,25.00
2019-06-26T01:41:25.590Z,24.90
2019-06-26T01:44:13.641Z,24.90
2019-06-26T01:49:03.217Z,24.80
2019-06-26T01:51:35.258Z,24.80
2019-06-26T01:54:08.058Z,24.80
2019-06-26T01:59:13.374Z,24.70
2019-06-26T02:01:44.862Z,24.70
2019-06-26T02:09:20.864Z,24.50
2019-06-26T02:11:54.853Z,24.50
2019-06-26T02:17:02.449Z,24.40
2019-06-26T02:19:35.330Z,24.30
2019-06-26T02:22:08.670Z,24.40
2019-06-26T02:24:40.611Z,24.30
2019-06-26T02:27:12.610Z,24.40
2019-06-26T02:29:46.715Z,24.30
2019-06-26T02:32:18.576Z,24.30
2019-06-26T02:34:50.385Z,24.20
2019-06-26T02:37:23.298Z,24.20
2019-06-26T02:39:55.312Z,24.20
2019-06-26T02:42:26.749Z,24.20
2019-06-26T02:47:31.827Z,24.10
2019-06-26T02:52:35.866Z,24.00
2019-06-26T02:57:41.233Z,23.90
2019-06-26T03:00:16.189Z,23.80
2019-06-26T03:02:48.171Z,23.80
2019-06-26T03:05:20.964Z,23.80
2019-06-26T03:07:54.698Z,23.80
2019-06-26T03:10:26.566Z,23.70
2019-06-26T03:12:59.356Z,23.70
2019-06-26T03:15:32.290Z,23.70
2019-06-26T03:18:04.246Z,23.60
2019-06-26T03:23:10.938Z,23.60
2019-06-26T03:28:15.140Z,23.60
2019-06-26T03:30:46.647Z,23.60
2019-06-26T03:35:51.209Z,23.50
2019-06-26T03:38:24.118Z,23.50
2019-06-26T03:40:57.046Z,23.50
2019-06-26T03:46:00.786Z,23.50
2019-06-26T03:48:32.634Z,23.50
2019-06-26T03:51:04.730Z,23.50
2019-06-26T03:58:40.411Z,23.50
2019-06-26T04:03:44.697Z,23.50
2019-06-26T04:06:17.710Z,23.50
2019-06-26T04:08:50.589Z,23.50
2019-06-26T04:11:21.741Z,23.40
2019-06-26T04:16:25.987Z,23.50
2019-06-26T04:18:57.867Z,23.50
2019-06-26T04:24:02.460Z,23.60
2019-06-26T04:26:35.349Z,23.50
2019-06-26T04:29:09.009Z,23.60
2019-06-26T04:31:40.855Z,23.60
2019-06-26T04:34:13.607Z,23.60
2019-06-26T04:39:19.292Z,23.50
2019-06-26T04:44:27.884Z,23.50
2019-06-26T04:49:33.238Z,23.60
2019-06-26T04:52:05.336Z,23.60
2019-06-26T05:02:15.568Z,23.50
2019-06-26T05:04:48.493Z,23.50
2019-06-26T05:07:20.998Z,23.50
2019-06-26T05:09:57.079Z,23.60
2019-06-26T05:20:09.752Z,23.60
2019-06-26T05:22:42.687Z,23.70
2019-06-26T05:25:15.500Z,23.70
2019-06-26T05:27:47.681Z,23.70
2019-06-26T05:30:19.925Z,23.70
2019-06-26T05:32:51.834Z,23.70
2019-06-26T05:38:01.282Z,23.70
2019-06-26T05:43:05.020Z,23.80
2019-06-26T05:48:08.450Z,23.90
2019-06-26T05:50:41.263Z,23.90
2019-06-26T05:53:13.998Z,24.00
2019-06-26T06:00:48.749Z,24.10
2019-06-26T06:03:21.565Z,24.20
2019-06-26T06:05:54.426Z,24.20
2019-06-26T06:08:28.939Z,24.20
2019-06-26T06:11:00.809Z,24.30
2019-06-26T06:16:07.028Z,24.40
2019-06-26T06:18:39.761Z,24.40
2019-06-26T06:21:13.821Z,24.40
2019-06-26T06:23:45.648Z,24.60
2019-06-26T06:26:18.490Z,24.50
2019-06-26T06:28:51.408Z,24.50
2019-06-26T06:31:24.202Z,24.60
2019-06-26T06:33:56.059Z,24.60
2019-06-26T06:36:27.963Z,24.70
2019-06-26T06:39:02.008Z,24.80
2019-06-26T06:41:34.828Z,24.90
2019-06-26T06:44:06.812Z,25.00
2019-06-26T06:46:38.678Z,24.90
2019-06-26T06:49:10.737Z,25.00
2019-06-26T06:59:18.534Z,24.80
2019-06-26T07:01:50.381Z,24.90
2019-06-26T07:04:24.877Z,24.80
2019-06-26T07:06:58.825Z,24.90
2019-06-26T07:09:30.798Z,25.00
2019-06-26T07:12:02.672Z,25.10
2019-06-26T07:17:19.971Z,25.20
2019-06-26T07:22:11.909Z,25.20
2019-06-26T07:29:47.202Z,25.30
2019-06-26T07:32:19.988Z,25.40
2019-06-26T07:37:25.224Z,25.60
2019-06-26T07:40:01.492Z,25.60
2019-06-26T07:42:31.874Z,25.20
2019-06-26T07:45:05.258Z,25.30
2019-06-26T07:47:43.809Z,25.50
2019-06-26T07:50:14.180Z,25.70
2019-06-26T07:55:19.343Z,25.80
2019-06-26T07:57:53.903Z,25.80
2019-06-26T08:00:31.479Z,26.00
2019-06-26T08:03:04.470Z,26.10
2019-06-26T08:05:37.055Z,26.10
2019-06-26T08:08:11.214Z,26.10
2019-06-26T08:10:44.670Z,26.30
2019-06-26T08:13:17.456Z,26.30
2019-06-26T08:18:20.806Z,26.00
2019-06-26T08:21:11.047Z,26.10
2019-06-26T08:25:59.960Z,26.30
2019-06-26T08:28:31.916Z,26.40
2019-06-26T08:31:04.435Z,26.50
2019-06-26T08:36:08.732Z,26.60
2019-06-26T08:38:41.926Z,26.50
2019-06-26T08:41:13.868Z,26.60
2019-06-26T08:43:47.495Z,26.70
2019-06-26T08:48:52.340Z,26.80
2019-06-26T08:53:59.183Z,26.80
2019-06-26T08:56:31.985Z,26.90
2019-06-26T08:59:03.840Z,27.00
2019-06-26T09:01:35.704Z,27.20
2019-06-26T09:04:08.854Z,27.20
2019-06-26T09:06:41.742Z,27.20
2019-06-26T09:09:16.459Z,26.30
2019-06-26T09:14:20.794Z,26.70
2019-06-26T09:16:52.132Z,26.80
2019-06-26T09:19:24.004Z,26.60
2019-06-26T09:24:28.495Z,26.80
2019-06-26T09:27:00.446Z,26.70
2019-06-26T09:29:32.423Z,26.60
2019-06-26T09:32:05.361Z,26.80
2019-06-26T09:34:38.580Z,26.80
2019-06-26T09:37:11.457Z,26.90
2019-06-26T09:39:43.326Z,26.90
2019-06-26T09:42:19.301Z,27.10
2019-06-26T09:47:19.514Z,27.20
2019-06-26T09:49:52.383Z,27.10
2019-06-26T09:52:25.207Z,27.10
2019-06-26T10:00:01.353Z,26.80
2019-06-26T10:02:34.316Z,26.70
2019-06-26T10:05:08.988Z,26.80
2019-06-26T10:07:40.891Z,26.90
2019-06-26T10:10:14.444Z,26.80
2019-06-26T10:12:46.506Z,26.80
2019-06-26T10:15:18.716Z,26.70
2019-06-26T10:17:50.679Z,26.90
2019-06-26T10:20:22.664Z,27.20
2019-06-26T10:25:27.116Z,27.40
2019-06-26T10:27:59.068Z,27.40
2019-06-26T10:30:31.969Z,27.50
2019-06-26T10:33:03.848Z,27.30
2019-06-26T10:35:35.820Z,27.60
2019-06-26T10:38:08.648Z,27.50
2019-06-26T10:43:12.911Z,27.60
2019-06-26T10:45:46.528Z,27.40
2019-06-26T10:48:18.422Z,27.40
2019-06-26T10:50:58.240Z,27.70
2019-06-26T10:55:57.084Z,27.80
2019-06-26T10:58:29.936Z,27.80
2019-06-26T11:01:04.327Z,27.70
2019-06-26T11:03:38.473Z,27.70
2019-06-26T11:06:10.377Z,27.90
2019-06-26T11:08:43.149Z,28.00
2019-06-26T11:11:15.060Z,28.10
2019-06-26T11:13:45.775Z,27.90
2019-06-26T11:16:17.620Z,27.90
2019-06-26T11:18:49.511Z,28.00
2019-06-26T11:21:23.280Z,27.70
2019-06-26T11:26:27.208Z,27.80
2019-06-26T11:29:00.089Z,28.00
2019-06-26T11:31:31.046Z,28.00
2019-06-26T11:34:04.199Z,27.80
2019-06-26T11:36:36.134Z,28.10
2019-06-26T11:39:09.828Z,28.00
2019-06-26T11:41:42.797Z,28.00
2019-06-26T11:46:45.568Z,28.20
2019-06-26T11:49:18.179Z,28.00
2019-06-26T11:56:54.739Z,27.90
2019-06-26T11:59:26.624Z,28.30
2019-06-26T12:01:58.554Z,28.70
2019-06-26T12:04:31.633Z,28.70
2019-06-26T12:07:03.675Z,28.80
2019-06-26T12:09:36.599Z,28.60
2019-06-26T12:12:09.464Z,28.90
2019-06-26T12:14:42.245Z,29.00
2019-06-26T12:17:14.146Z,28.90
2019-06-26T12:19:46.975Z,28.90
2019-06-26T12:22:19.680Z,28.90
2019-06-26T12:24:52.461Z,29.00
2019-06-26T12:27:25.386Z,28.80
2019-06-26T12:29:58.081Z,29.00
2019-06-26T12:32:30.056Z,29.10
2019-06-26T12:35:02.153Z,29.10
2019-06-26T12:40:09.625Z,28.60
2019-06-26T12:42:44.233Z,28.70
2019-06-26T12:45:17.465Z,28.90
2019-06-26T12:47:49.370Z,28.90
2019-06-26T12:50:34.647Z,28.80
2019-06-26T12:52:57.375Z,28.90
2019-06-26T12:55:32.688Z,28.70
2019-06-26T12:58:12.958Z,28.80
2019-06-26T13:00:36.494Z,28.80
2019-06-26T13:03:09.251Z,28.80
2019-06-26T13:05:42.033Z,29.10
2019-06-26T13:08:14.932Z,29.30
2019-06-26T13:10:50.210Z,29.40
2019-06-26T13:13:22.217Z,29.50
2019-06-26T13:15:54.073Z,29.60
2019-06-26T13:18:27.016Z,29.50
2019-06-26T13:21:00.048Z,29.70
2019-06-26T13:23:32.062Z,29.70
2019-06-26T13:26:03.933Z,29.80
2019-06-26T13:28:35.860Z,29.60
2019-06-26T13:31:07.807Z,29.80
2019-06-26T13:33:42.055Z,30.10
2019-06-26T13:36:15.374Z,30.00
2019-06-26T13:38:49.982Z,30.10
2019-06-26T13:41:21.849Z,29.90
2019-06-26T13:43:54.632Z,30.00
2019-06-26T13:46:26.539Z,29.50
2019-06-26T13:48:59.506Z,29.40
2019-06-26T13:51:32.550Z,29.80
2019-06-26T13:54:07.213Z,29.80
2019-06-26T13:56:40.167Z,30.10
2019-06-26T13:59:14.195Z,30.30
2019-06-26T14:01:47.012Z,30.40
2019-06-26T14:04:19.942Z,30.10
2019-06-26T14:06:51.986Z,30.30
2019-06-26T14:09:24.063Z,30.40
2019-06-26T14:11:56.880Z,30.40
2019-06-26T14:14:41.113Z,30.50
2019-06-26T14:17:02.302Z,30.80
2019-06-26T14:19:35.124Z,30.90
2019-06-26T14:22:07.938Z,30.70
2019-06-26T14:24:42.299Z,30.90
2019-06-26T14:27:15.023Z,30.80
2019-06-26T14:29:46.858Z,31.00
2019-06-26T14:32:19.876Z,30.90
2019-06-26T14:34:51.744Z,30.50
2019-06-26T14:37:23.642Z,30.70
2019-06-26T14:39:55.625Z,31.00
2019-06-26T14:42:28.393Z,30.90
2019-06-26T14:45:00.372Z,30.70
2019-06-26T14:47:35.529Z,30.60
2019-06-26T14:50:09.204Z,30.80
2019-06-26T14:52:45.688Z,30.80
2019-06-26T14:55:18.667Z,31.10
2019-06-26T14:57:50.564Z,31.20
2019-06-26T15:00:22.645Z,31.50
2019-06-26T15:02:55.904Z,31.40
2019-06-26T15:05:28.821Z,31.50
2019-06-26T15:08:01.732Z,31.10
2019-06-26T15:10:34.637Z,31.20
2019-06-26T15:13:07.404Z,31.40
2019-06-26T15:15:38.492Z,31.50
2019-06-26T15:18:12.155Z,31.50
2019-06-26T15:20:44.180Z,31.40
2019-06-26T15:23:20.392Z,31.40
2019-06-26T15:25:53.543Z,31.80
2019-06-26T15:28:26.373Z,32.20
2019-06-26T15:30:58.360Z,31.90
2019-06-26T15:33:30.412Z,32.20
2019-06-26T15:36:03.305Z,31.90
2019-06-26T15:38:36.147Z,32.30
2019-06-26T15:41:08.080Z,32.50
2019-06-26T15:43:41.034Z,32.10
2019-06-26T15:46:15.056Z,32.10
2019-06-26T15:48:50.411Z,32.80
2019-06-26T15:51:23.722Z,33.20
2019-06-26T15:53:54.354Z,33.60
2019-06-26T15:56:27.063Z,33.60
2019-06-26T15:58:59.967Z,33.10
2019-06-26T16:01:34.945Z,33.40
2019-06-26T16:04:07.784Z,33.40
2019-06-26T16:06:39.318Z,33.60
2019-06-26T16:09:12.239Z,33.80
2019-06-26T16:11:45.146Z,33.20
2019-06-26T16:14:17.975Z,33.30
2019-06-26T16:16:52.525Z,33.20
2019-06-26T16:19:25.963Z,33.40
2019-06-26T16:21:59.297Z,33.60
2019-06-26T16:24:32.096Z,33.80
2019-06-26T16:27:05.082Z,33.90
2019-06-26T16:29:36.786Z,34.10
2019-06-26T16:32:08.679Z,34.50
2019-06-26T16:34:40.621Z,34.60
2019-06-26T16:37:12.465Z,34.50
2019-06-26T16:39:46.640Z,34.40
2019-06-26T16:42:19.471Z,34.00
2019-06-26T16:44:54.070Z,34.30
2019-06-26T16:47:27.785Z,34.30
2019-06-26T16:49:59.794Z,34.30
2019-06-26T16:52:47.975Z,34.30
2019-06-26T16:55:07.444Z,34.20
2019-06-26T16:57:40.268Z,34.00
2019-06-26T17:00:13.933Z,33.70
2019-06-26T17:02:46.443Z,33.60
2019-06-26T17:05:18.711Z,33.50
2019-06-26T17:07:50.584Z,32.60
2019-06-26T17:10:23.834Z,32.30
2019-06-26T17:12:56.629Z,31.80
2019-06-26T17:15:30.621Z,31.70
2019-06-26T17:18:08.828Z,31.40
2019-06-26T17:20:41.601Z,31.20
2019-06-26T17:23:13.505Z,31.00
2019-06-26T17:25:49.590Z,30.80
2019-06-26T17:28:23.784Z,30.40
2019-06-26T17:30:58.286Z,30.00
2019-06-26T17:33:31.414Z,29.80
2019-06-26T17:36:03.257Z,29.60
2019-06-26T17:38:37.586Z,29.50
2019-06-26T17:41:12.172Z,29.50
2019-06-26T17:43:45.015Z,29.50
2019-06-26T17:46:17.865Z,29.40
2019-06-26T17:48:52.832Z,29.20
2019-06-26T17:51:25.707Z,29.00
2019-06-26T17:53:57.590Z,29.00
2019-06-26T17:56:28.969Z,28.70
2019-06-26T17:59:00.845Z,28.80
2019-06-26T18:01:35.025Z,28.60
2019-06-26T18:04:08.338Z,28.50
2019-06-26T18:06:42.861Z,28.40
2019-06-26T18:09:14.792Z,28.30
2019-06-26T18:11:47.532Z,28.00
2019-06-26T18:14:20.349Z,27.70
2019-06-26T18:16:52.410Z,27.60
2019-06-26T18:19:24.349Z,27.50
2019-06-26T18:21:56.289Z,27.50
2019-06-26T18:24:29.257Z,27.50
2019-06-26T18:27:01.194Z,27.40
2019-06-26T18:32:05.573Z,27.20
2019-06-26T18:34:37.441Z,27.10
2019-06-26T18:37:11.352Z,27.10
2019-06-26T18:39:44.713Z,26.90
2019-06-26T18:42:17.340Z,26.90
2019-06-26T18:44:50.237Z,26.80
2019-06-26T18:47:23.027Z,26.70
2019-06-26T18:49:56.914Z,26.60
2019-06-26T18:52:28.775Z,26.60
2019-06-26T18:55:01.991Z,26.60
2019-06-26T18:57:33.984Z,26.60
2019-06-26T19:00:07.682Z,26.50
2019-06-26T19:02:42.211Z,26.40
2019-06-26T19:05:14.295Z,26.30
2019-06-26T19:07:46.124Z,26.20
2019-06-26T19:10:19.041Z,26.10
2019-06-26T19:12:53.654Z,25.90
2019-06-26T19:15:26.459Z,25.80
2019-06-26T19:20:33.002Z,25.80
2019-06-26T19:23:03.442Z,25.70
2019-06-26T19:25:35.398Z,25.60
2019-06-26T19:28:07.240Z,25.50
2019-06-26T19:30:39.144Z,25.50
2019-06-26T19:33:12.133Z,25.40
2019-06-26T19:35:46.627Z,25.20
2019-06-26T19:38:19.543Z,25.30
2019-06-26T19:43:23.799Z,25.20
2019-06-26T19:51:01.681Z,24.90
2019-06-26T19:53:33.578Z,24.90
2019-06-26T19:56:08.080Z,24.80
2019-06-26T20:01:12.304Z,24.70
2019-06-26T20:03:45.085Z,24.60
2019-06-26T20:06:17.071Z,24.60
2019-06-26T20:11:22.944Z,24.50
2019-06-26T20:13:54.898Z,24.40
2019-06-26T20:21:31.939Z,24.20
2019-06-26T20:24:04.741Z,24.10
2019-06-26T20:29:09.647Z,24.00
2019-06-26T20:34:16.556Z,24.00
2019-06-26T20:36:49.401Z,23.90
2019-06-26T20:39:22.238Z,23.80
2019-06-26T20:41:55.562Z,23.80
2019-06-26T20:44:28.482Z,23.70
2019-06-26T20:47:02.648Z,23.70
2019-06-26T20:49:49.069Z,23.60
2019-06-26T20:52:10.242Z,23.60
2019-06-26T20:54:42.209Z,23.50
2019-06-26T20:57:15.115Z,23.40
2019-06-26T21:04:52.618Z,23.20
2019-06-26T21:07:24.597Z,23.10
2019-06-26T21:12:30.344Z,23.00
2019-06-26T21:15:03.189Z,22.90
2019-06-26T21:20:07.377Z,22.80
2019-06-26T21:35:22.791Z,22.50
2019-06-26T21:37:54.680Z,22.50
2019-06-26T21:42:58.161Z,22.40
2019-06-26T21:45:31.259Z,22.20
2019-06-26T21:48:03.765Z,22.20
2019-06-26T21:50:35.620Z,22.20
2019-06-26T22:00:46.118Z,21.90
2019-06-26T22:03:19.370Z,21.90
2019-06-26T22:08:26.656Z,21.70
2019-06-26T22:10:59.475Z,21.60
2019-06-26T22:21:12.124Z,21.40
2019-06-26T22:33:53.887Z,21.00
2019-06-26T22:36:51.919Z,20.90
2019-06-26T22:39:21.963Z,20.80
2019-06-26T22:41:54.728Z,20.70
2019-06-26T22:46:58.107Z,20.60
2019-06-26T22:49:29.942Z,20.50
2019-06-26T23:02:09.510Z,20.10
2019-06-26T23:04:42.554Z,20.10
2019-06-26T23:07:15.423Z,20.00
2019-06-26T23:09:47.310Z,19.80
2019-06-26T23:14:52.624Z,19.70
2019-06-26T23:17:25.831Z,19.60
2019-06-26T23:19:58.654Z,19.50
2019-06-26T23:25:00.973Z,19.40
2019-06-26T23:30:10.456Z,19.30
2019-06-26T23:32:42.369Z,19.30
2019-06-26T23:35:14.518Z,19.20
2019-06-26T23:42:51.285Z,18.90
2019-06-26T23:45:25.785Z,18.90
2019-06-26T23:53:04.594Z,18.70
2019-06-26T23:55:36.505Z,18.60
2019-06-26T23:58:08.437Z,18.60
